Time;durP1;ratioP1;P1;durP2;ratioP2;P2;SDS_P1;SDS_P2;PMS_P1;PMS_P2;Temp;Humidity;BMP_temperature;BMP_pressure;BME280_temperature;BME280_humidity;BME280_pressure;Samples;Min_cycle;Max_cycle;Signal;HPM_P1;HPM_P2
2022/06/21 00:00:26;;;;;;;4.15;1.90;;;;;;;22.59;41.91;101873.28;4867766;29;20029;-82
2022/06/21 00:02:57;;;;;;;4.93;2.25;;;;;;;22.61;41.87;101866.25;4853668;29;20119;-78
2022/06/21 00:05:34;;;;;;;5.35;2.20;;;;;;;22.60;41.93;101864.50;4868835;29;20025;-78
2022/06/21 00:08:01;;;;;;;6.40;2.35;;;;;;;22.57;41.73;101857.53;4885060;29;20047;-78
2022/06/21 00:10:27;;;;;;;5.85;1.95;;;;;;;22.57;41.79;101854.91;4866464;29;20037;-79
2022/06/21 00:12:52;;;;;;;6.85;2.00;;;;;;;22.53;42.08;101850.59;4850699;29;20040;-78
2022/06/21 00:15:17;;;;;;;7.40;2.13;;;;;;;22.54;41.97;101854.13;4850961;29;20484;-79
2022/06/21 00:17:47;;;;;;;4.78;1.77;;;;;;;22.56;42.03;101852.34;4882633;29;20049;-79
2022/06/21 00:20:20;;;;;;;5.20;1.83;;;;;;;22.54;41.75;101849.72;4882810;29;20040;-79
2022/06/21 00:22:46;;;;;;;5.57;2.15;;;;;;;22.56;41.85;101847.09;4867153;29;20097;-78
2022/06/21 00:25:20;;;;;;;5.07;2.03;;;;;;;22.50;41.78;101845.41;4866725;29;20400;-78
2022/06/21 00:27:46;;;;;;;5.07;2.35;;;;;;;22.53;41.90;101850.59;4866973;29;20064;-79
2022/06/21 00:30:13;;;;;;;9.20;1.75;;;;;;;22.56;41.95;101844.47;4851498;29;20483;-78
2022/06/21 00:32:39;;;;;;;4.88;2.13;;;;;;;22.50;41.92;101842.78;4851488;29;20060;-79
2022/06/21 00:35:11;;;;;;;5.88;2.30;;;;;;;22.52;41.84;101845.41;4851192;29;20033;-79
2022/06/21 00:37:37;;;;;;;4.23;1.87;;;;;;;22.52;41.75;101835.75;4882571;29;20112;-79
2022/06/21 00:40:18;;;;;;;7.13;2.13;;;;;;;22.51;42.00;101835.78;4883073;29;20072;-79
2022/06/21 00:42:47;;;;;;;5.07;1.90;;;;;;;22.52;42.05;101840.16;4882928;29;20025;-79
2022/06/21 00:45:26;;;;;;;4.95;2.20;;;;;;;22.50;41.79;101831.44;4883560;29;20035;-79
2022/06/21 00:47:55;;;;;;;4.38;1.90;;;;;;;22.51;41.92;101834.00;4866200;29;20479;-79
2022/06/21 00:50:34;;;;;;;7.13;2.30;;;;;;;22.46;42.00;101827.13;4883009;29;20068;-78
2022/06/21 00:53:14;;;;;;;7.35;2.08;;;;;;;22.44;41.80;101821.88;4883335;29;20025;-79
2022/06/21 00:55:51;;;;;;;4.55;2.45;;;;;;;22.48;41.69;101815.72;4866319;29;20475;-79
2022/06/21 00:58:18;;;;;;;6.85;2.20;;;;;;;22.46;41.95;101814.88;4883117;29;20033;-78
2022/06/21 01:00:43;;;;;;;3.35;1.77;;;;;;;22.44;41.47;101811.41;4865771;29;20040;-77
2022/06/21 01:03:18;;;;;;;8.57;2.60;;;;;;;22.44;41.70;101814.03;4882287;29;20025;-79
2022/06/21 01:05:45;;;;;;;5.45;2.05;;;;;;;22.45;42.01;101812.25;4882353;29;20033;-79
2022/06/21 01:08:17;;;;;;;3.92;2.17;;;;;;;22.43;41.83;101814.91;4850475;29;20040;-79
2022/06/21 01:10:47;;;;;;;5.88;2.58;;;;;;;22.43;41.72;101803.53;4882521;29;20025;-79
2022/06/21 01:13:17;;;;;;;5.13;2.17;;;;;;;22.44;41.78;101807.91;4866270;29;20115;-78
2022/06/21 01:15:47;;;;;;;3.72;2.10;;;;;;;22.39;41.99;101803.59;4865609;29;20057;-79
2022/06/21 01:18:16;;;;;;;4.65;2.30;;;;;;;22.40;41.98;101801.84;4865506;29;20041;-78
2022/06/21 01:20:47;;;;;;;7.22;2.35;;;;;;;22.44;42.21;101797.41;4866050;29;20089;-79
2022/06/21 01:23:25;;;;;;;4.50;2.25;;;;;;;22.37;41.94;101794.88;4884834;29;20025;-77
2022/06/21 01:25:59;;;;;;;5.03;2.10;;;;;;;22.38;42.36;101791.38;4890831;29;20048;-77
2022/06/21 01:28:25;;;;;;;4.72;2.38;;;;;;;22.38;41.99;101786.16;4871313;29;20087;-78
2022/06/21 01:30:54;;;;;;;4.40;2.42;;;;;;;22.37;41.68;101787.00;4854425;29;20032;-79
2022/06/21 01:33:28;;;;;;;5.22;2.40;;;;;;;22.36;41.98;101782.69;4886990;29;20056;-77
2022/06/21 01:35:55;;;;;;;6.22;2.50;;;;;;;22.33;42.04;101780.06;4870297;29;20048;-79
2022/06/21 01:38:26;;;;;;;5.30;2.50;;;;;;;22.32;41.87;101780.97;4887251;29;20053;-79
2022/06/21 01:40:58;;;;;;;8.10;2.53;;;;;;;22.31;41.75;101787.09;4886282;29;20053;-79
2022/06/21 01:43:27;;;;;;;5.97;2.45;;;;;;;22.29;42.21;101785.41;4869097;29;20451;-79
2022/06/21 01:46:07;;;;;;;5.85;2.35;;;;;;;22.30;41.93;101793.25;4867962;29;20024;-79
2022/06/21 01:48:42;;;;;;;4.57;2.50;;;;;;;22.34;41.84;101796.66;4868037;29;20024;-79
2022/06/21 01:51:15;;;;;;;6.82;2.65;;;;;;;22.38;41.77;101798.38;4868366;29;20052;-79
2022/06/21 01:53:41;;;;;;;8.68;2.60;;;;;;;22.36;41.82;101806.28;4868344;29;20092;-79
2022/06/21 01:56:12;;;;;;;5.22;2.47;;;;;;;22.38;42.01;101801.00;4884790;29;20053;-78
2022/06/21 01:58:43;;;;;;;5.82;2.55;;;;;;;22.37;42.30;101794.88;4868333;29;20021;-79
2022/06/21 02:01:16;;;;;;;5.20;2.50;;;;;;;22.37;41.90;101789.63;4886300;29;20032;-78
2022/06/21 02:03:44;;;;;;;6.57;2.45;;;;;;;22.34;41.89;101787.06;4867249;29;20028;-78
2022/06/21 02:06:13;;;;;;;7.05;2.90;;;;;;;22.35;42.05;101785.31;4867713;29;20476;-78
2022/06/21 02:08:54;;;;;;;6.70;2.53;;;;;;;22.31;42.09;101789.72;4885541;29;20093;-79
2022/06/21 02:11:26;;;;;;;6.20;2.30;;;;;;;22.33;41.86;101784.47;4867758;29;20084;-78
2022/06/21 02:16:42;;;;;;;5.70;2.50;;;;;;;22.35;41.98;101790.56;4884794;29;20108;-78
2022/06/21 02:19:13;;;;;;;6.55;2.60;;;;;;;22.33;42.08;101795.81;4868298;29;20129;-78
2022/06/21 02:21:41;;;;;;;5.80;2.25;;;;;;;22.33;42.22;101802.81;4871522;29;20036;-79
2022/06/21 02:24:08;;;;;;;7.40;2.25;;;;;;;22.31;42.01;101800.22;4887113;29;20104;-79
2022/06/21 02:26:34;;;;;;;4.80;2.17;;;;;;;22.29;41.99;101801.97;4869323;29;20057;-78
2022/06/21 02:29:00;;;;;;;5.68;2.70;;;;;;;22.29;42.08;101803.75;4886260;29;20033;-79
2022/06/21 02:31:27;;;;;;;5.18;2.35;;;;;;;22.30;41.96;101803.72;4887151;29;20054;-78
2022/06/21 02:33:56;;;;;;;5.88;2.67;;;;;;;22.25;42.07;101805.53;4869704;29;20395;-79
2022/06/21 02:36:30;;;;;;;5.00;2.00;;;;;;;22.27;42.03;101809.00;4869666;29;20040;-78
2022/06/21 02:39:00;;;;;;;7.25;2.42;;;;;;;22.26;41.88;101812.53;4886880;29;20029;-79
2022/06/21 02:41:41;;;;;;;5.20;2.03;;;;;;;22.27;41.82;101798.50;4887770;29;20080;-78
2022/06/21 02:44:18;;;;;;;3.78;2.08;;;;;;;22.28;41.92;101799.41;4887551;29;20029;-78
2022/06/21 02:47:02;;;;;;;5.10;2.30;;;;;;;22.28;42.00;101799.41;4870354;29;20025;-79
2022/06/21 02:49:39;;;;;;;4.72;2.28;;;;;;;22.25;42.14;101791.56;4869882;29;20084;-78
2022/06/21 02:52:11;;;;;;;6.72;2.25;;;;;;;22.23;42.19;101773.22;4886718;29;20088;-77
2022/06/21 02:54:49;;;;;;;4.47;2.25;;;;;;;22.25;42.23;101767.97;4869597;29;20029;-78
2022/06/21 02:57:33;;;;;;;4.13;2.05;;;;;;;22.20;42.21;101760.13;4885934;29;20580;-77
2022/06/21 03:00:01;;;;;;;4.75;1.95;;;;;;;22.24;42.08;101758.38;4867876;29;20029;-79
2022/06/21 03:02:31;;;;;;;4.03;2.00;;;;;;;22.22;41.96;101763.63;4867931;29;20040;-78
2022/06/21 03:05:01;;;;;;;5.70;2.20;;;;;;;22.24;41.93;101761.88;4867922;29;20032;-79
2022/06/21 03:07:30;;;;;;;4.75;1.90;;;;;;;22.22;42.13;101749.63;4885200;29;20032;-79
2022/06/21 03:09:57;;;;;;;4.82;2.10;;;;;;;22.19;42.02;101746.19;4868718;29;20029;-78
2022/06/21 03:12:26;;;;;;;4.15;2.00;;;;;;;22.18;42.27;101733.06;4885846;29;20025;-79
2022/06/21 03:14:56;;;;;;;5.15;2.17;;;;;;;22.11;42.02;101734.06;4886845;29;20433;-77
2022/06/21 03:17:32;;;;;;;8.10;2.10;;;;;;;22.14;42.03;101739.25;4870210;29;20072;-79
2022/06/21 03:19:57;;;;;;;3.55;2.05;;;;;;;22.19;41.93;101742.69;4888720;29;20523;-79
2022/06/21 03:22:31;;;;;;;6.45;2.30;;;;;;;22.15;41.91;101738.38;4887741;29;20033;-79
2022/06/21 03:24:58;;;;;;;;;;;;;;;22.21;42.01;101740.03;4888021;29;20033;-79
2022/06/21 03:27:35;;;;;;;3.83;2.15;;;;;;;22.17;42.12;101745.31;4887934;29;19975;-79
2022/06/21 03:30:02;;;;;;;4.25;2.00;;;;;;;22.19;42.30;101738.31;4888016;29;20025;-79
2022/06/21 03:32:33;;;;;;;5.72;2.00;;;;;;;22.21;41.94;101729.53;4870645;29;20029;-78
2022/06/21 03:35:00;;;;;;;4.28;1.88;;;;;;;22.20;41.89;101728.69;4873309;29;20036;-77
2022/06/21 03:37:25;;;;;;;3.85;2.10;;;;;;;22.16;42.23;101721.75;4858389;29;20040;-76
2022/06/21 03:42:40;;;;;;;4.05;2.05;;;;;;;22.12;42.21;101718.31;4875636;29;20047;-77
2022/06/21 03:45:16;;;;;;;4.07;2.25;;;;;;;22.09;41.91;101707.00;4889535;29;20028;-77
2022/06/21 03:48:00;;;;;;;3.92;2.03;;;;;;;22.09;41.95;101717.50;4889653;29;20053;-76
2022/06/21 03:50:39;;;;;;;5.82;2.00;;;;;;;22.11;42.14;101723.56;4887816;29;20064;-75
2022/06/21 03:53:35;;;;;;;4.78;2.30;;;;;;;22.14;41.82;101715.66;4888481;29;20059;-77
2022/06/21 03:56:08;;;;;;;4.50;2.25;;;;;;;22.19;41.89;101725.19;4889036;29;20037;-75
2022/06/21 03:59:30;;;;;;;4.03;2.17;;;;;;;22.21;41.85;101725.19;4891542;29;20028;-77
2022/06/21 04:02:06;;;;;;;3.75;2.20;;;;;;;22.19;42.03;101713.84;4818505;29;20625;-77
2022/06/21 04:04:53;;;;;;;4.20;2.20;;;;;;;22.19;41.83;101724.34;4800360;29;20030;-78
2022/06/21 04:07:30;;;;;;;5.40;2.60;;;;;;;22.20;41.90;101723.44;4874872;29;20041;-79
2022/06/21 04:10:19;;;;;;;3.85;2.10;;;;;;;22.15;41.90;101720.03;4890279;29;20021;-78
2022/06/21 04:12:57;;;;;;;4.35;2.47;;;;;;;22.17;42.04;101721.72;4890832;29;20392;-78
2022/06/21 04:15:47;;;;;;;4.97;2.15;;;;;;;22.18;42.02;101714.72;4890054;29;20040;-78
2022/06/21 04:18:30;;;;;;;3.38;2.13;;;;;;;22.19;42.01;101711.22;4873508;29;20049;-79
2022/06/21 04:21:14;;;;;;;;;;;;;;;22.21;42.00;101704.22;4873844;29;20097;-78
2022/06/21 04:23:47;;;;;;;3.90;2.05;;;;;;;22.24;41.83;101708.56;4872763;29;19936;-79
2022/06/21 04:26:13;;;;;;;4.18;2.28;;;;;;;22.23;42.06;101707.69;4872410;29;20025;-78
2022/06/21 04:28:46;;;;;;;4.65;2.10;;;;;;;22.20;42.07;101697.22;4869855;29;20032;-78
2022/06/21 04:31:21;;;;;;;3.60;2.30;;;;;;;22.17;42.11;101686.78;4871440;29;20017;-81
2022/06/21 04:34:13;;;;;;;4.00;2.20;;;;;;;22.19;42.15;101690.25;4888477;29;20040;-80
2022/06/21 04:37:01;;;;;;;3.40;1.98;;;;;;;22.22;42.12;101684.09;4887693;29;20036;-80
2022/06/21 04:39:30;;;;;;;5.95;2.15;;;;;;;22.28;42.05;101692.75;4872882;29;20073;-80
2022/06/21 04:42:15;;;;;;;4.13;1.80;;;;;;;22.36;41.93;101695.25;4889787;29;20033;-80
2022/06/21 04:44:55;;;;;;;4.18;1.90;;;;;;;22.50;41.56;101689.78;4891126;29;20036;-80
2022/06/21 04:47:26;;;;;;;4.93;2.22;;;;;;;22.66;41.55;101699.13;4891928;29;20021;-80
2022/06/21 04:50:00;;;;;;;3.13;2.03;;;;;;;22.77;41.30;101707.66;4875215;29;20033;-82
2022/06/21 04:52:33;;;;;;;5.15;2.20;;;;;;;22.86;40.93;101706.63;4890390;29;20036;-80
2022/06/21 04:54:58;;;;;;;4.55;2.00;;;;;;;23.03;41.38;101701.13;4890588;29;20112;-80
2022/06/21 04:57:28;;;;;;;3.17;1.75;;;;;;;23.09;41.01;101693.13;4890469;29;20064;-80
2022/06/21 05:00:03;;;;;;;4.78;2.13;;;;;;;23.13;41.21;101688.69;4873630;29;20032;-81
2022/06/21 05:02:34;;;;;;;9.77;2.20;;;;;;;23.18;41.55;101681.59;4891392;29;20025;-82
2022/06/21 05:05:03;;;;;;;11.20;2.65;;;;;;;23.07;41.54;101683.56;4873995;29;20029;-83
2022/06/21 05:07:33;;;;;;;7.00;2.78;;;;;;;22.95;41.65;101682.88;4873671;29;20029;-82
2022/06/21 05:10:00;;;;;;;7.63;2.97;;;;;;;22.93;41.64;101687.28;4890448;29;20025;-82
2022/06/21 05:12:31;;;;;;;6.65;2.67;;;;;;;22.89;42.19;101685.59;4889609;29;20104;-81
2022/06/21 05:15:01;;;;;;;9.25;2.60;;;;;;;22.80;42.07;101691.03;4890523;29;20127;-81
2022/06/21 05:17:28;;;;;;;5.25;2.58;;;;;;;22.69;41.83;101679.84;4873689;29;20081;-81
2022/06/21 05:20:00;;;;;;;11.30;3.45;;;;;;;22.57;41.70;101675.69;4875347;29;20028;-79
2022/06/21 05:22:35;;;;;;;9.20;3.30;;;;;;;22.50;41.15;101680.16;4874061;29;20088;-79
2022/06/21 05:25:04;;;;;;;13.02;3.67;;;;;;;22.48;41.25;101687.19;4871628;29;20029;-82
2022/06/21 05:27:44;;;;;;;11.60;3.63;;;;;;;22.49;40.94;101690.66;4889236;29;20025;-81
2022/06/21 05:30:15;;;;;;;13.35;3.90;;;;;;;22.50;40.85;101689.78;4887799;29;20029;-82
2022/06/21 05:32:51;;;;;;;10.00;3.33;;;;;;;22.49;40.54;101693.28;4888074;29;20033;-82
2022/06/21 05:35:21;;;;;;;10.25;3.25;;;;;;;22.47;40.41;101695.06;4889049;29;20041;-81
2022/06/21 05:38:02;;;;;;;10.32;3.72;;;;;;;22.47;40.37;101680.22;4887857;29;20036;-82
2022/06/21 05:40:35;;;;;;;8.55;3.28;;;;;;;22.52;40.05;101690.63;4871973;29;20057;-82
2022/06/21 05:43:01;;;;;;;;;;;;;;;22.53;39.98;101701.09;4871886;29;20041;-83
2022/06/21 05:45:34;;;;;;;10.80;3.47;;;;;;;22.58;39.98;101696.66;4859549;29;19923;-85
2022/06/21 05:48:12;;;;;;;9.70;3.28;;;;;;;22.62;40.07;101694.81;4902189;29;20016;-86
2022/06/21 05:50:40;;;;;;;12.18;3.35;;;;;;;22.63;40.26;101699.19;4882363;29;20044;-83
2022/06/21 05:53:22;;;;;;;10.25;3.20;;;;;;;22.66;39.82;101709.63;4881292;29;20036;-84
2022/06/21 05:55:48;;;;;;;9.05;3.13;;;;;;;22.67;39.92;101700.88;4900634;29;20473;-84
2022/06/21 05:58:19;;;;;;;11.10;3.53;;;;;;;22.67;39.95;101703.50;4851223;29;20032;-84
2022/06/21 06:01:01;;;;;;;10.55;3.38;;;;;;;22.73;39.55;101705.13;4879071;29;20029;-84
2022/06/21 06:03:37;;;;;;;8.98;3.20;;;;;;;22.75;39.71;101701.56;4889124;29;20040;-82
2022/06/21 06:06:08;;;;;;;12.80;3.67;;;;;;;22.85;39.62;101701.44;4877525;29;20041;-83
2022/06/21 06:08:41;;;;;;;11.70;3.40;;;;;;;22.96;39.51;101707.34;4880488;29;20033;-84
2022/06/21 06:11:19;;;;;;;11.15;3.83;;;;;;;23.00;39.22;101706.44;4878786;29;20032;-84
2022/06/21 06:13:49;;;;;;;10.10;3.20;;;;;;;23.04;39.32;101713.38;4882134;29;20009;-86
2022/06/21 06:16:21;;;;;;;9.25;3.47;;;;;;;23.09;39.21;101718.53;4885163;29;20017;-85
2022/06/21 06:18:53;;;;;;;9.68;3.35;;;;;;;23.11;38.99;101708.88;4901369;29;20044;-86
2022/06/21 06:21:40;;;;;;;13.45;2.90;;;;;;;23.16;39.39;101707.88;4897403;29;20065;-83
2022/06/21 06:24:30;;;;;;;12.13;3.28;;;;;;;23.17;39.47;101708.75;4873737;29;20029;-83
2022/06/21 06:27:00;;;;;;;10.38;3.25;;;;;;;23.23;39.23;101719.13;4889545;29;20021;-83
2022/06/21 06:29:44;;;;;;;12.02;3.13;;;;;;;23.26;39.48;101718.22;4890072;29;20101;-83
2022/06/21 06:32:25;;;;;;;9.52;2.80;;;;;;;23.28;39.43;101719.91;4875136;29;20036;-83
2022/06/21 06:34:53;;;;;;;8.48;2.80;;;;;;;23.32;39.66;101721.59;4898846;29;20089;-84
2022/06/21 06:37:41;;;;;;;9.52;2.75;;;;;;;23.36;39.42;101725.84;4901533;29;20097;-83
2022/06/21 06:40:19;;;;;;;7.80;2.50;;;;;;;23.37;39.42;101719.72;4882363;29;20033;-82
2022/06/21 06:42:46;;;;;;;9.98;2.72;;;;;;;23.36;39.23;101730.25;4876801;29;20088;-84
2022/06/21 06:45:20;;;;;;;5.78;2.30;;;;;;;23.35;39.31;101723.28;4891880;29;20045;-84
2022/06/21 06:47:51;;;;;;;5.25;2.00;;;;;;;23.36;39.10;101730.25;4892310;29;20025;-84
2022/06/21 06:50:31;;;;;;;;;;;;;;;;;;;;;
2022/06/21 06:53:04;;;;;;;7.78;2.47;;;;;;;23.38;39.44;101731.09;4890547;29;20100;-84
2022/06/21 06:55:46;;;;;;;8.13;2.28;;;;;;;23.39;39.46;101732.84;4896184;29;20044;-83
2022/06/21 06:58:24;;;;;;;8.07;2.60;;;;;;;23.40;39.46;101738.03;4878472;29;20028;-84
2022/06/21 07:01:13;;;;;;;7.25;2.47;;;;;;;23.41;39.19;101745.03;4892656;29;20033;-83
2022/06/21 07:03:47;;;;;;;7.25;2.58;;;;;;;23.43;39.12;101739.75;4873977;29;20031;-83
2022/06/21 07:06:32;;;;;;;7.60;2.30;;;;;;;23.44;39.25;101744.09;4875860;29;20025;-82
2022/06/21 07:09:03;;;;;;;8.57;2.58;;;;;;;23.44;39.31;101744.09;4878818;29;20399;-83
2022/06/21 07:11:50;;;;;;;6.47;2.30;;;;;;;23.47;39.06;101749.28;4893632;29;20025;-82
2022/06/21 07:14:20;;;;;;;7.75;2.70;;;;;;;23.49;39.55;101749.25;4877205;29;20061;-83
2022/06/21 07:16:49;;;;;;;6.85;2.58;;;;;;;23.49;39.18;101763.25;4877845;29;20025;-83
2022/06/21 07:19:15;;;;;;;7.43;2.53;;;;;;;23.50;39.26;101740.50;4878108;29;20048;-83
2022/06/21 07:21:41;;;;;;;5.82;2.08;;;;;;;23.49;39.37;101750.13;4861749;29;20084;-83
2022/06/21 07:24:14;;;;;;;7.55;2.45;;;;;;;23.50;39.09;101751.88;4895954;29;20040;-83
2022/06/21 07:27:00;;;;;;;6.22;2.15;;;;;;;23.49;39.18;101747.50;4895013;29;20029;-83
2022/06/21 07:29:56;;;;;;;5.22;2.05;;;;;;;23.51;39.17;101750.97;4877412;29;20021;-83
2022/06/21 07:32:25;;;;;;;7.95;2.25;;;;;;;23.51;38.57;101740.44;4894646;29;20025;-83
2022/06/21 07:35:07;;;;;;;6.88;2.58;;;;;;;23.54;38.91;101740.41;4878933;29;20045;-83
2022/06/21 07:37:44;;;;;;;5.95;2.17;;;;;;;23.56;39.13;101745.59;4894401;29;20032;-84
2022/06/21 07:40:20;;;;;;;5.13;1.95;;;;;;;23.57;39.12;101744.72;4897148;29;20065;-83
2022/06/21 07:43:31;;;;;;;5.32;2.10;;;;;;;23.59;39.13;101753.44;4897275;29;20036;-84
2022/06/21 07:46:00;;;;;;;6.85;2.25;;;;;;;23.61;39.17;101744.63;4853925;29;20080;-84
2022/06/21 07:48:30;;;;;;;5.40;2.10;;;;;;;23.59;38.85;101746.41;4895968;29;20036;-84
2022/06/21 07:51:02;;;;;;;7.28;2.40;;;;;;;23.57;39.32;101752.59;4878554;29;20123;-84
2022/06/21 07:53:33;;;;;;;6.78;1.98;;;;;;;23.59;39.21;101753.44;4877859;29;20412;-84
2022/06/21 07:56:22;;;;;;;6.13;2.30;;;;;;;23.63;38.94;101755.13;4896690;29;20064;-84
2022/06/21 07:59:15;;;;;;;7.88;2.45;;;;;;;23.60;38.96;101749.91;4880129;29;20043;-83
2022/06/21 08:07:50;;;;;;;4.88;1.85;;;;;;;23.65;38.82;101748.06;4893090;29;20495;-83
2022/06/21 08:10:24;;;;;;;7.85;1.90;;;;;;;23.66;39.10;101749.78;4875970;29;20151;-82
2022/06/21 08:12:50;;;;;;;5.75;2.20;;;;;;;23.62;38.60;101753.38;4875810;29;20033;-82
2022/06/21 08:15:16;;;;;;;5.13;1.98;;;;;;;23.58;38.50;101747.34;4876348;29;20025;-83
2022/06/21 08:18:21;;;;;;;5.18;1.85;;;;;;;23.61;38.95;101742.00;4890005;29;20033;-83
2022/06/21 08:20:57;;;;;;;5.10;2.00;;;;;;;23.61;38.45;101736.75;4881115;29;20074;-83
2022/06/21 08:23:43;;;;;;;4.28;1.88;;;;;;;23.63;38.38;101731.47;4876652;29;20021;-82
2022/06/21 08:26:19;;;;;;;3.58;1.70;;;;;;;23.66;38.61;101727.91;4901618;29;20033;-83
2022/06/21 08:28:48;;;;;;;5.35;2.13;;;;;;;23.66;38.45;101730.53;4881926;29;20044;-83
2022/06/21 08:31:26;;;;;;;4.93;1.90;;;;;;;23.65;38.40;101727.03;4893016;29;20025;-83
2022/06/21 08:34:23;;;;;;;7.55;1.92;;;;;;;23.66;38.66;101728.75;4895447;29;20029;-83
2022/06/21 08:37:01;;;;;;;5.22;1.58;;;;;;;23.67;38.50;101727.00;4859718;29;20037;-83
2022/06/21 08:39:45;;;;;;;8.05;2.72;;;;;;;23.67;38.57;101719.09;4899992;29;20033;-81
2022/06/21 08:42:39;;;;;;;7.57;3.17;;;;;;;23.75;39.19;101714.56;4883929;29;20077;-84
2022/06/21 08:45:41;;;;;;;;;;;;;;;23.69;39.19;101725.19;4885149;29;20032;-83
2022/06/21 08:48:50;;;;;;;8.55;3.00;;;;;;;23.65;39.03;101720.91;4884306;29;19916;-83
2022/06/21 08:51:46;;;;;;;6.55;2.60;;;;;;;23.60;38.67;101718.38;4886114;29;20033;-84
2022/06/21 08:54:33;;;;;;;7.30;2.22;;;;;;;23.55;38.13;101713.22;4900537;29;20041;-83
2022/06/21 08:57:19;;;;;;;6.13;2.05;;;;;;;23.51;37.88;101714.19;4880825;29;20032;-83
2022/06/21 09:00:02;;;;;;;4.90;1.83;;;;;;;23.47;37.31;101709.88;4897609;29;20097;-84
2022/06/21 09:03:00;;;;;;;4.20;1.80;;;;;;;23.42;37.08;101706.50;4896614;29;20107;-83
2022/06/21 09:05:41;;;;;;;7.70;1.85;;;;;;;23.41;36.96;101702.16;4896197;29;20029;-83
2022/06/21 09:08:15;;;;;;;4.88;1.70;;;;;;;23.41;36.79;101687.25;4877457;29;20084;-83
2022/06/21 09:10:53;;;;;;;5.13;2.03;;;;;;;23.43;36.96;101692.47;4901971;29;20029;-81
2022/06/21 09:13:56;;;;;;;4.50;1.80;;;;;;;23.41;36.33;101689.88;4887794;29;20017;-83
2022/06/21 09:16:34;;;;;;;6.88;1.80;;;;;;;23.40;36.48;101696.00;4881411;29;20036;-83
2022/06/21 09:19:24;;;;;;;6.32;1.80;;;;;;;23.43;36.38;101695.09;4895656;29;20064;-83
2022/06/21 09:22:15;;;;;;;6.75;2.25;;;;;;;23.39;36.35;101694.28;4879931;29;20029;-82
2022/06/21 09:24:52;;;;;;;5.28;1.52;;;;;;;23.37;35.97;101696.09;4895947;29;20025;-83
2022/06/21 09:27:26;;;;;;;3.22;1.50;;;;;;;23.38;35.92;101696.94;4897422;29;20021;-83
2022/06/21 09:30:21;;;;;;;5.85;1.75;;;;;;;23.38;36.30;101687.28;4882791;29;20065;-83
2022/06/21 09:32:58;;;;;;;5.55;1.45;;;;;;;23.36;35.79;101685.59;4899527;29;20029;-84
2022/06/21 09:40:33;;;;;;;4.90;1.55;;;;;;;23.34;35.74;101690.00;5760640;23;20045;-86
2022/06/21 09:43:17;;;;;;;5.63;1.65;;;;;;;23.33;35.32;101690.94;4903969;29;20021;-84
2022/06/21 09:45:46;;;;;;;;;;;;;;;23.30;35.45;101689.22;4887183;29;20088;-85
2022/06/21 10:01:29;;;;;;;;;;;;;;;23.33;35.05;101673.41;5197656;23;19908;-83
2022/06/21 10:04:06;;;;;;;;;;;;;;;23.29;34.93;101676.97;4888369;29;19904;-84
2022/06/21 10:06:38;;;;;;;;;;;;;;;23.27;34.62;101670.03;4887745;29;19920;-83
2022/06/21 10:11:57;;;;;;;;;;;;;;;23.28;35.05;101677.00;5607559;23;19930;-84
2022/06/21 10:14:37;;;;;;;;;;;;;;;23.27;34.92;101672.66;4886015;29;19920;-83
2022/06/21 10:19:44;;;;;;;;;;;;;;;23.26;35.79;101669.19;5903024;23;19946;-76
2022/06/21 10:22:21;;;;;;;;;;;;;;;23.32;35.50;101671.69;4881375;29;19924;-76
2022/06/21 10:25:01;;;;;;;;;;;;;;;23.32;35.90;101668.16;4865233;29;19916;-77
2022/06/21 10:28:02;;;;;;;;;;;;;;;23.33;36.24;101668.16;4865239;29;20269;-77
2022/06/21 10:30:39;;;;;;;;;;;;;;;23.35;36.71;101662.88;4806951;29;19913;-77
2022/06/21 10:33:10;;;;;;;;;;;;;;;23.37;36.90;101658.44;4872783;29;19918;-78
2022/06/21 10:35:35;;;;;;;;;;;;;;;23.38;37.00;101655.78;4865963;29;20383;-78
2022/06/21 10:38:20;;;;;;;;;;;;;;;23.38;37.26;101654.91;4867208;29;19968;-78
2022/06/21 10:40:51;;;;;;;;;;;;;;;23.36;37.77;101651.44;4883652;29;19919;-78
2022/06/21 10:43:25;;;;;;;;;;;;;;;23.34;37.97;101653.25;4871434;29;19911;-78
2022/06/21 10:45:54;;;;;;;;;;;;;;;23.35;38.09;101645.34;4870455;29;19915;-78
2022/06/21 10:48:37;;;;;;;;;;;;;;;23.29;38.33;101644.59;4869985;29;19954;-78
2022/06/21 10:51:18;;;;;;;;;;;;;;;23.26;38.50;101639.44;4869129;29;20422;-77
2022/06/21 10:54:02;;;;;;;;;;;;;;;23.27;38.98;101636.75;4868797;29;20359;-78
2022/06/21 11:02:39;;;;;;;;;;;;;;;23.29;39.01;101634.09;4887532;29;19963;-78
2022/06/21 11:05:07;;;;;;;;;;;;;;;23.29;39.11;101634.09;4869935;29;19912;-78
2022/06/21 11:07:39;;;;;;;;;;;;;;;23.28;39.19;101630.63;4871418;29;20011;-78
2022/06/21 11:10:07;;;;;;;;;;;;;;;23.31;39.13;101624.44;4870038;29;19912;-78
2022/06/21 11:15:29;;;;;;;;;;;;;;;23.25;39.62;101625.41;4889603;29;19958;-78
2022/06/21 11:17:54;;;;;;;;;;;;;;;23.23;39.43;101636.84;4868881;29;19912;-78
2022/06/21 11:20:34;;;;;;;;;;;;;;;23.20;39.72;101633.41;4868383;29;19926;-78
2022/06/21 11:23:24;;;;;;;;;;;;;;;23.21;39.58;101644.75;4869166;29;20014;-78
2022/06/21 11:25:58;;;;;;;;;;;;;;;23.19;39.68;101649.16;4869636;29;19912;-78
2022/06/21 11:28:28;;;;;;;;;;;;;;;23.23;39.49;101642.09;4868156;29;19919;-77
2022/06/21 11:30:53;;;;;;;;;;;;;;;23.25;39.59;101637.69;4883740;29;19918;-77
2022/06/21 11:33:24;;;;;;;;;;;;;;;23.24;39.51;101642.09;4883861;29;20006;-77
2022/06/21 11:35:49;;;;;;;;;;;;;;;23.27;39.40;101638.53;4868744;29;19912;-77
2022/06/21 11:38:24;;;;;;;;;;;;;;;23.26;39.76;101642.06;4886463;29;19942;-77
2022/06/21 11:40:55;;;;;;;;;;;;;;;23.27;39.29;101642.00;4868615;29;19912;-77
2022/06/21 11:43:22;;;;;;;;;;;;;;;23.26;39.39;101631.56;4871054;29;19912;-77
2022/06/21 11:45:49;;;;;;;;;;;;;;;23.26;39.49;101631.56;4873171;29;19912;-78
2022/06/21 11:48:53;;;;;;;;;;;;;;;23.27;39.45;101634.13;4876892;29;19918;-77
2022/06/21 11:51:34;;;;;;;;;;;;;;;23.26;39.62;101627.16;4837535;29;20003;-77
2022/06/21 11:54:19;;;;;;;;;;;;;;;23.23;39.39;101627.22;4831846;29;19999;-77
2022/06/21 11:56:48;;;;;;;;;;;;;;;23.18;39.56;101637.81;4858145;29;19916;-77
2022/06/21 11:59:27;;;;;;;;;;;;;;;23.07;39.46;101636.31;4885058;29;19978;-83
2022/06/21 12:02:01;;;;;;;;;;;;;;;23.10;39.37;101636.22;4877583;29;19920;-78
2022/06/21 12:04:44;;;;;;;;;;;;;;;23.18;39.06;101629.94;5027508;23;19923;-82
2022/06/21 12:22:47;;;;;;;;;;;;;;;23.27;39.30;101601.75;5247019;23;19930;-85
2022/06/21 12:25:14;;;;;;;;;;;;;;;23.29;39.14;101602.59;4886698;29;19940;-84
2022/06/21 12:27:40;;;;;;;;;;;;;;;23.28;39.34;101600.84;4902688;29;19923;-83
2022/06/21 12:30:25;;;;;;;;;;;;;;;23.24;39.36;101600.06;4886652;29;19911;-85
2022/06/21 12:33:03;;;;;;;;;;;;;;;23.19;39.39;101602.78;4886517;29;19895;-85
2022/06/21 12:35:55;;;;;;;;;;;;;;;23.18;39.35;101597.56;4903261;29;19908;-84
2022/06/21 12:38:22;;;;;;;;;;;;;;;23.11;39.32;101595.97;4903005;29;19943;-83
2022/06/21 12:40:53;;;;;;;;;;;;;;;23.09;39.52;101595.13;4902744;29;19943;-84
2022/06/21 12:43:42;;;;;;;;;;;;;;;23.10;39.30;101594.22;4886465;29;19912;-85
2022/06/21 12:46:21;;;;;;;;;;;;;;;23.06;39.39;101585.56;4886591;29;20263;-84
2022/06/21 12:48:58;;;;;;;;;;;;;;;23.08;39.15;101588.16;4886687;29;19911;-85
2022/06/21 12:51:42;;;;;;;;;;;;;;;23.05;39.14;101586.44;4901195;29;20000;-84
2022/06/21 12:54:19;;;;;;;;;;;;;;;23.06;39.10;101579.44;4886397;29;19927;-84
2022/06/21 12:56:54;;;;;;;;;;;;;;;23.09;39.18;101582.00;4886421;29;19899;-84
2022/06/21 12:59:30;;;;;;;;;;;;;;;23.08;39.11;101582.91;4886589;29;19912;-84
2022/06/21 13:02:08;;;;;;;;;;;;;;;23.10;39.36;101570.59;4885537;29;19983;-84
2022/06/21 13:04:45;;;;;;;;;;;;;;;23.09;39.24;101571.50;4902245;29;19912;-84
2022/06/21 13:07:27;;;;;;;;;;;;;;;23.10;39.14;101570.59;4885511;29;19896;-85
2022/06/21 13:10:08;;;;;;;;;;;;;;;23.10;39.00;101570.59;4885878;29;19911;-84
2022/06/21 13:12:33;;;;;;;;;;;;;;;23.14;39.06;101567.88;4902225;29;19918;-85
2022/06/21 13:17:54;;;;;;;;;;;;;;;23.14;39.35;101565.25;5113096;23;19914;-84
2022/06/21 13:20:38;;;;;;;;;;;;;;;23.16;39.40;101562.59;4886690;29;19928;-85
2022/06/21 13:23:16;;;;;;;;;;;;;;;23.19;39.09;101555.53;5522148;24;19948;-85